Time;durP1;ratioP1;P1;durP2;ratioP2;P2;SDS_P1;SDS_P2;PMS_P1;PMS_P2;Temp;Humidity;BMP_temperature;BMP_pressure;BME280_temperature;BME280_humidity;BME280_pressure;Samples;Min_cycle;Max_cycle;Signal;HPM_P1;HPM_P2
2023/01/03 00:01:14;;;;;;;;;;;;;;;11.74;53.50;100416.87;4346435;33;32937;-69
2023/01/03 00:03:41;;;;;;;;;;;;;;;11.70;53.66;100422.56;4357496;32;33712;-69
2023/01/03 00:06:18;;;;;;;;;;;;;;;11.35;54.94;100431.16;4347743;32;35248;-70
2023/01/03 00:08:46;;;;;;;;;;;;;;;11.57;54.70;100428.75;4357292;32;32779;-68
2023/01/03 00:11:14;;;;;;;;;;;;;;;11.60;54.40;100436.59;4360263;32;34708;-70
2023/01/03 00:13:41;;;;;;;;;;;;;;;11.29;55.19;100435.09;4359862;32;32314;-70
2023/01/03 00:16:16;;;;;;;;;;;;;;;11.67;54.13;100434.34;4352048;32;35216;-69
2023/01/03 00:18:44;;;;;;;;;;;;;;;11.78;53.65;100437.16;4355562;32;34401;-67
2023/01/03 00:21:11;;;;;;;;;;;;;;;11.60;54.24;100435.72;4360425;32;34159;-68
2023/01/03 00:23:38;;;;;;;;;;;;;;;11.48;54.56;100447.28;4361257;32;33437;-70
2023/01/03 00:26:09;;;;;;;;;;;;;;;11.31;55.21;100440.37;4362687;32;33927;-71
2023/01/03 00:28:37;;;;;;;;;;;;;;;11.09;56.29;100443.63;4348860;32;34429;-69
2023/01/03 00:31:07;;;;;;;;;;;;;;;11.27;56.04;100439.72;4352765;32;34843;-70
2023/01/03 00:33:36;;;;;;;;;;;;;;;10.78;58.32;100444.75;4353868;32;34689;-70
2023/01/03 00:36:04;;;;;;;;;;;;;;;10.64;59.25;100438.47;4356767;32;34868;-70
2023/01/03 00:38:32;;;;;;;;;;;;;;;10.74;59.30;100441.41;4359463;32;34383;-69
2023/01/03 00:41:07;;;;;;;;;;;;;;;11.10;58.33;100446.19;4355342;32;34385;-67
2023/01/03 00:43:35;;;;;;;;;;;;;;;11.33;57.97;100446.47;4356395;32;32202;-71
2023/01/03 00:46:03;;;;;;;;;;;;;;;11.37;57.97;100446.19;4351461;32;33813;-70
2023/01/03 00:48:30;;;;;;;;;;;;;;;11.50;57.82;100448.91;4341360;32;33855;-69
2023/01/03 00:51:03;;;;;;;;;;;;;;;11.43;58.30;100447.59;4348729;32;34302;-71
2023/01/03 00:53:30;;;;;;;;;;;;;;;10.98;59.93;100448.81;4333866;32;33540;-67
2023/01/03 00:56:17;;;;;;;;;;;;;;;11.26;59.13;100442.50;4355513;32;34959;-72
2023/01/03 00:58:44;;;;;;;;;;;;;;;11.31;59.06;100446.59;4353846;32;34170;-69
2023/01/03 01:01:16;;;;;;;;;;;;;;;11.73;57.69;100447.34;4352208;32;34360;-69
2023/01/03 01:03:45;;;;;;;;;;;;;;;11.77;57.57;100448.84;4351148;32;34697;-70
2023/01/03 01:06:23;;;;;;;;;;;;;;;11.90;56.91;100456.94;4358473;32;34312;-69
2023/01/03 01:08:52;;;;;;;;;;;;;;;11.85;57.15;100451.91;4352625;32;33854;-70
2023/01/03 01:11:19;;;;;;;;;;;;;;;11.56;58.23;100456.53;4358538;32;34422;-70
2023/01/03 01:13:47;;;;;;;;;;;;;;;11.69;57.93;100455.72;4348990;32;32035;-69
2023/01/03 01:16:15;;;;;;;;;;;;;;;11.91;57.23;100447.06;4357841;32;34242;-70
2023/01/03 01:18:44;;;;;;;;;;;;;;;11.80;57.54;100458.50;4351965;32;32858;-70
2023/01/03 01:21:18;;;;;;;;;;;;;;;11.86;57.28;100464.34;4354775;32;33959;-69
2023/01/03 01:23:45;;;;;;;;;;;;;;;11.94;57.22;100471.00;4355622;32;33468;-70
2023/01/03 01:26:13;;;;;;;;;;;;;;;11.95;57.08;100470.91;4355244;32;34084;-69
2023/01/03 01:28:40;;;;;;;;;;;;;;;11.88;57.23;100475.84;4359155;32;34152;-69
2023/01/03 01:31:08;;;;;;;;;;;;;;;12.02;56.79;100472.19;4355508;32;34675;-70
2023/01/03 01:33:36;;;;;;;;;;;;;;;12.07;56.50;100470.06;4347876;32;33380;-71
2023/01/03 01:36:06;;;;;;;;;;;;;;;12.17;56.03;100464.91;4357390;32;34223;-69
2023/01/03 01:38:34;;;;;;;;;;;;;;;11.88;56.95;100454.37;4358831;32;34651;-69
2023/01/03 01:41:01;;;;;;;;;;;;;;;12.12;56.41;100453.63;4356617;32;35288;-69
2023/01/03 01:46:20;;;;;;;;;;;;;;;12.23;55.92;100453.75;4352430;32;35197;-69
2023/01/03 01:48:48;;;;;;;;;;;;;;;12.23;55.95;100451.06;4349505;32;38356;-69
2023/01/03 01:51:16;;;;;;;;;;;;;;;12.04;56.62;100445.25;4346562;32;34315;-69
2023/01/03 01:53:43;;;;;;;;;;;;;;;12.06;56.65;100446.84;4345934;32;33488;-68
2023/01/03 01:56:20;;;;;;;;;;;;;;;11.85;57.40;100449.22;4354344;32;33844;-69
2023/01/03 01:58:49;;;;;;;;;;;;;;;11.92;57.55;100448.78;4354188;32;34307;-68
2023/01/03 02:01:16;;;;;;;;;;;;;;;12.06;57.29;100456.72;4345591;32;34535;-69
2023/01/03 02:03:45;;;;;;;;;;;;;;;12.17;57.05;100462.22;4333704;33;35087;-69
2023/01/03 02:06:13;;;;;;;;;;;;;;;12.26;56.79;100458.00;4352308;32;35688;-69
2023/01/03 02:08:41;;;;;;;;;;;;;;;12.21;57.04;100471.75;4351035;32;33966;-67
2023/01/03 02:11:12;;;;;;;;;;;;;;;12.23;56.86;100463.59;4357865;32;34155;-68
2023/01/03 02:13:45;;;;;;;;;;;;;;;11.85;58.26;100468.00;4357273;32;31917;-69
2023/01/03 02:16:27;;;;;;;;;;;;;;;12.18;57.19;100468.44;4352435;32;35606;-68
2023/01/03 02:19:14;;;;;;;;;;;;;;;12.03;57.89;100468.53;4358631;32;34397;-69
2023/01/03 02:21:44;;;;;;;;;;;;;;;11.79;58.97;100470.19;4357855;32;35269;-68
2023/01/03 02:24:22;;;;;;;;;;;;;;;11.93;58.33;100485.38;4355929;32;33116;-68
2023/01/03 02:26:56;;;;;;;;;;;;;;;11.88;58.81;100475.84;4349601;32;33427;-71
2023/01/03 02:29:42;;;;;;;;;;;;;;;12.22;57.61;100473.47;4353946;32;34162;-71
2023/01/03 02:32:09;;;;;;;;;;;;;;;12.12;57.64;100467.91;4350101;32;34510;-70
2023/01/03 02:34:48;;;;;;;;;;;;;;;11.67;59.24;100474.56;4356409;32;33453;-71
2023/01/03 02:37:18;;;;;;;;;;;;;;;12.01;58.50;100469.62;4347276;32;34038;-70
2023/01/03 02:39:46;;;;;;;;;;;;;;;11.33;61.40;100468.81;4357755;32;35025;-69
2023/01/03 02:45:19;;;;;;;;;;;;;;;11.37;61.33;100470.31;4357654;32;33403;-70
2023/01/03 02:47:51;;;;;;;;;;;;;;;11.41;61.26;100474.50;4343367;32;34121;-70
2023/01/03 02:50:19;;;;;;;;;;;;;;;11.04;62.93;100467.16;4357964;32;34052;-70
2023/01/03 02:52:46;;;;;;;;;;;;;;;11.51;60.90;100471.22;4357372;32;33792;-69
2023/01/03 02:55:15;;;;;;;;;;;;;;;11.26;61.68;100470.16;4348431;32;34090;-70
2023/01/03 02:57:50;;;;;;;;;;;;;;;11.15;61.50;100462.81;4345023;32;32868;-70
2023/01/03 03:00:21;;;;;;;;;;;;;;;11.28;61.89;100464.69;4358840;32;34497;-68
2023/01/03 03:02:51;;;;;;;;;;;;;;;11.64;60.68;100464.91;4359096;32;34247;-70
2023/01/03 03:05:29;;;;;;;;;;;;;;;11.24;61.24;100472.09;4357564;32;33278;-68
2023/01/03 03:07:58;;;;;;;;;;;;;;;11.39;61.54;100476.41;4358892;32;33956;-70
2023/01/03 03:13:15;;;;;;;;;;;;;;;11.20;61.62;100486.62;4360452;32;34531;-70
2023/01/03 03:15:47;;;;;;;;;;;;;;;11.79;59.97;100492.50;4347281;32;33692;-67
2023/01/03 03:18:16;;;;;;;;;;;;;;;11.83;59.95;100487.78;4359797;32;34462;-68
2023/01/03 03:26:17;;;;;;;;;;;;;;;12.23;58.15;100485.94;4339058;32;33601;-67
2023/01/03 03:28:46;;;;;;;;;;;;;;;12.24;58.02;100487.66;4345806;33;34089;-68
2023/01/03 03:31:14;;;;;;;;;;;;;;;12.45;57.14;100485.28;4356943;32;32733;-69
2023/01/03 03:33:46;;;;;;;;;;;;;;;12.52;56.90;100481.22;4352428;32;34836;-70
2023/01/03 03:36:16;;;;;;;;;;;;;;;12.20;58.16;100483.47;4342836;32;34686;-68
2023/01/03 03:38:44;;;;;;;;;;;;;;;12.13;58.34;100487.53;4354711;32;33977;-68
2023/01/03 03:46:54;;;;;;;;;;;;;;;12.64;56.88;100490.19;4358875;32;32297;-68
2023/01/03 03:49:38;;;;;;;;;;;;;;;12.46;57.73;100483.47;4341815;32;33935;-65
2023/01/03 03:52:07;;;;;;;;;;;;;;;12.71;57.04;100487.94;4350033;32;34098;-65
2023/01/03 03:54:35;;;;;;;;;;;;;;;12.67;56.97;100492.66;4357104;32;34035;-66
2023/01/03 03:57:08;;;;;;;;;;;;;;;12.57;57.61;100489.78;4355967;32;33353;-65
2023/01/03 03:59:35;;;;;;;;;;;;;;;12.66;57.44;100487.41;4356277;32;35227;-65
2023/01/03 04:02:04;;;;;;;;;;;;;;;12.65;57.53;100483.00;4359304;32;35129;-65
2023/01/03 04:04:33;;;;;;;;;;;;;;;12.72;57.48;100484.28;4356073;32;34196;-71
2023/01/03 04:07:01;;;;;;;;;;;;;;;12.64;57.65;100490.19;4344460;32;33729;-64
2023/01/03 04:09:28;;;;;;;;;;;;;;;12.51;58.00;100492.03;4355176;32;33829;-71
2023/01/03 04:11:55;;;;;;;;;;;;;;;12.29;59.04;100493.53;4358505;32;35839;-68
2023/01/03 04:14:23;;;;;;;;;;;;;;;12.59;58.08;100495.06;4359843;32;35012;-65
2023/01/03 04:16:50;;;;;;;;;;;;;;;12.55;58.16;100501.59;4357765;32;33250;-64
2023/01/03 04:19:17;;;;;;;;;;;;;;;12.63;57.77;100495.69;4360092;32;33933;-65
2023/01/03 04:21:45;;;;;;;;;;;;;;;12.66;57.71;100498.16;4353622;32;32590;-66
2023/01/03 04:24:12;;;;;;;;;;;;;;;12.76;57.11;100507.28;4359338;32;33916;-64
2023/01/03 04:26:39;;;;;;;;;;;;;;;12.55;58.06;100494.41;4359503;32;34383;-65
2023/01/03 04:29:06;;;;;;;;;;;;;;;12.74;57.17;100510.03;4358529;32;33010;-65
2023/01/03 04:31:34;;;;;;;;;;;;;;;12.43;58.65;100506.03;4356629;32;35528;-64
2023/01/03 04:34:01;;;;;;;;;;;;;;;12.53;58.08;100493.66;4358646;32;33868;-65
2023/01/03 04:36:29;;;;;;;;;;;;;;;12.37;58.99;100503.75;4358473;32;34588;-65
2023/01/03 04:38:56;;;;;;;;;;;;;;;11.90;61.07;100502.53;4358646;32;35208;-65
2023/01/03 04:41:23;;;;;;;;;;;;;;;11.88;61.01;100499.97;4356755;32;35424;-64
2023/01/03 04:44:01;;;;;;;;;;;;;;;12.11;60.65;100502.91;4349930;32;34749;-66
2023/01/03 04:46:32;;;;;;;;;;;;;;;11.18;63.96;100515.34;4357466;32;33700;-65
2023/01/03 04:48:59;;;;;;;;;;;;;;;11.58;62.29;100516.25;4356943;32;34436;-65
2023/01/03 04:51:26;;;;;;;;;;;;;;;11.90;61.09;100521.31;4359325;32;33871;-66
2023/01/03 04:53:54;;;;;;;;;;;;;;;11.71;61.79;100518.97;4355912;32;34064;-65
2023/01/03 04:56:39;;;;;;;;;;;;;;;11.93;60.86;100518.41;4359301;32;33569;-65
2023/01/03 04:59:07;;;;;;;;;;;;;;;11.76;61.61;100522.22;4357067;32;33999;-64
2023/01/03 05:01:34;;;;;;;;;;;;;;;11.64;61.74;100526.56;4359319;32;34110;-66
2023/01/03 05:04:02;;;;;;;;;;;;;;;11.55;62.43;100516.47;4354685;32;33012;-64
2023/01/03 05:06:29;;;;;;;;;;;;;;;11.37;63.32;100528.41;4358725;32;33093;-65
2023/01/03 05:08:57;;;;;;;;;;;;;;;11.52;62.53;100532.75;4356015;32;34336;-67
2023/01/03 05:11:24;;;;;;;;;;;;;;;12.09;60.25;100524.44;4358201;32;34049;-68
2023/01/03 05:13:51;;;;;;;;;;;;;;;12.01;60.55;100528.66;4352556;32;34935;-66
2023/01/03 05:16:19;;;;;;;;;;;;;;;12.31;59.51;100534.56;4356509;32;33568;-66
2023/01/03 05:18:48;;;;;;;;;;;;;;;12.10;60.18;100528.00;4357883;32;34366;-67
2023/01/03 05:26:49;;;;;;;;;;;;;;;12.44;58.71;100541.78;4354887;32;34793;-67
2023/01/03 05:29:18;;;;;;;;;;;;;;;12.20;59.22;100538.94;4352757;32;34051;-67
2023/01/03 05:31:45;;;;;;;;;;;;;;;12.11;59.37;100545.84;4344321;32;34232;-67
2023/01/03 05:34:13;;;;;;;;;;;;;;;12.09;59.77;100553.97;4355758;32;34288;-67
2023/01/03 05:36:40;;;;;;;;;;;;;;;11.65;61.49;100555.13;4356638;32;33009;-65
2023/01/03 05:39:07;;;;;;;;;;;;;;;11.76;61.38;100562.44;4358363;32;32868;-67
2023/01/03 05:44:21;;;;;;;;;;;;;;;11.66;61.59;100572.94;4356433;32;33194;-65
2023/01/03 05:46:49;;;;;;;;;;;;;;;12.11;60.48;100578.03;4358745;32;32956;-64
2023/01/03 05:49:16;;;;;;;;;;;;;;;12.16;60.40;100572.34;4344678;32;32548;-66
2023/01/03 05:51:43;;;;;;;;;;;;;;;11.96;60.84;100576.37;4357026;32;33832;-64
2023/01/03 05:54:14;;;;;;;;;;;;;;;12.41;59.96;100576.88;4348592;32;33927;-64
2023/01/03 05:56:41;;;;;;;;;;;;;;;12.19;60.70;100574.81;4356811;32;33382;-66
2023/01/03 05:59:09;;;;;;;;;;;;;;;12.36;60.52;100571.84;4357806;32;34075;-65
2023/01/03 06:01:37;;;;;;;;;;;;;;;12.26;61.07;100574.31;4357670;32;34332;-65
2023/01/03 06:04:04;;;;;;;;;;;;;;;12.25;60.72;100579.78;4350461;32;34026;-66
2023/01/03 06:06:31;;;;;;;;;;;;;;;12.08;61.27;100584.47;4345781;32;33871;-66
2023/01/03 06:08:59;;;;;;;;;;;;;;;12.47;60.26;100582.69;4355108;32;34242;-66
2023/01/03 06:11:26;;;;;;;;;;;;;;;12.90;58.86;100593.09;4358180;32;34564;-66
2023/01/03 06:13:53;;;;;;;;;;;;;;;13.01;58.48;100584.28;4357784;32;35080;-63
2023/01/03 06:19:07;;;;;;;;;;;;;;;13.04;58.31;100592.13;4355442;32;34069;-66
2023/01/03 06:21:34;;;;;;;;;;;;;;;12.93;58.90;100595.56;4354107;32;34371;-66
2023/01/03 06:24:02;;;;;;;;;;;;;;;12.95;58.85;100596.31;4352679;32;35523;-65
2023/01/03 06:26:29;;;;;;;;;;;;;;;13.17;57.69;100587.59;4354918;32;33349;-66
2023/01/03 06:28:56;;;;;;;;;;;;;;;13.03;58.07;100598.47;4356572;32;34133;-66
2023/01/03 06:31:23;;;;;;;;;;;;;;;12.95;58.54;100590.09;4346953;32;34506;-66
2023/01/03 06:33:51;;;;;;;;;;;;;;;13.00;57.96;100585.25;4352612;32;33152;-66
2023/01/03 06:36:19;;;;;;;;;;;;;;;12.89;58.17;100590.53;4356899;32;33176;-66
2023/01/03 06:38:47;;;;;;;;;;;;;;;12.83;58.38;100598.03;4359301;32;34065;-66
2023/01/03 06:41:14;;;;;;;;;;;;;;;12.72;58.70;100595.28;4360381;32;34265;-65
2023/01/03 06:43:42;;;;;;;;;;;;;;;12.65;59.09;100599.37;4355959;32;34132;-66
2023/01/03 06:54:30;;;;;;;;;;;;;;;12.29;60.26;100619.69;4353885;32;34414;-65
2023/01/03 06:56:57;;;;;;;;;;;;;;;12.19;60.82;100623.97;4358212;32;34234;-66
2023/01/03 06:59:25;;;;;;;;;;;;;;;12.42;60.27;100624.25;4355709;32;34059;-66
2023/01/03 07:01:52;;;;;;;;;;;;;;;12.33;60.53;100634.66;4355418;32;33138;-66
2023/01/03 07:04:20;;;;;;;;;;;;;;;12.63;59.23;100627.28;4354545;32;34611;-66
2023/01/03 07:06:48;;;;;;;;;;;;;;;12.14;60.78;100630.66;4356560;32;33308;-66
2023/01/03 07:09:15;;;;;;;;;;;;;;;11.85;61.68;100631.62;4346402;32;33063;-67
2023/01/03 07:11:43;;;;;;;;;;;;;;;12.20;60.69;100630.19;4346065;32;35095;-66
2023/01/03 07:14:10;;;;;;;;;;;;;;;12.10;61.10;100644.28;4360008;32;34580;-66
2023/01/03 07:16:39;;;;;;;;;;;;;;;12.29;60.47;100645.69;4358526;32;34631;-66
2023/01/03 07:19:08;;;;;;;;;;;;;;;12.13;60.83;100643.19;4363523;32;34372;-65
2023/01/03 07:21:35;;;;;;;;;;;;;;;12.05;61.05;100654.44;4356510;32;35473;-65
2023/01/03 07:24:03;;;;;;;;;;;;;;;11.73;62.25;100648.47;4360179;32;34527;-66
2023/01/03 07:26:32;;;;;;;;;;;;;;;11.88;62.05;100649.34;4355037;32;32235;-65
2023/01/03 07:29:00;;;;;;;;;;;;;;;11.83;61.54;100641.53;4358067;32;34330;-65
2023/01/03 07:31:28;;;;;;;;;;;;;;;12.28;61.32;100643.97;4359256;32;34426;-65
2023/01/03 07:33:55;;;;;;;;;;;;;;;12.65;60.99;100650.41;4358548;32;33834;-65
2023/01/03 07:36:22;;;;;;;;;;;;;;;13.03;59.24;100650.41;4357970;32;34777;-65
2023/01/03 07:38:50;;;;;;;;;;;;;;;13.54;57.76;100652.16;4335653;32;32647;-66
2023/01/03 07:41:17;;;;;;;;;;;;;;;13.87;56.72;100653.38;4345861;33;35253;-66
2023/01/03 07:43:45;;;;;;;;;;;;;;;13.71;56.01;100659.88;4350238;32;34555;-66
2023/01/03 07:46:20;;;;;;;;;;;;;;;13.52;56.68;100662.19;4356519;32;33073;-66
2023/01/03 07:48:48;;;;;;;;;;;;;;;13.64;55.93;100661.31;4358385;32;33480;-66
2023/01/03 07:51:17;;;;;;;;;;;;;;;13.51;56.13;100666.72;4360535;32;34968;-65
2023/01/03 07:53:45;;;;;;;;;;;;;;;13.33;57.02;100664.50;4353979;32;34561;-66
2023/01/03 07:56:13;;;;;;;;;;;;;;;13.33;56.90;100673.41;4350421;32;34232;-66
2023/01/03 07:58:41;;;;;;;;;;;;;;;13.13;57.43;100669.44;4358335;32;35556;-66
2023/01/03 08:01:10;;;;;;;;;;;;;;;13.12;57.62;100677.59;4357995;32;34963;-66
2023/01/03 08:03:38;;;;;;;;;;;;;;;12.94;58.38;100685.13;4347418;32;35564;-66
2023/01/03 08:06:06;;;;;;;;;;;;;;;12.89;58.57;100685.44;4356601;32;33215;-66
2023/01/03 08:08:33;;;;;;;;;;;;;;;13.15;58.00;100686.28;4357052;32;33085;-66
2023/01/03 08:13:47;;;;;;;;;;;;;;;13.08;57.88;100692.22;4356228;32;33255;-66
2023/01/03 08:16:16;;;;;;;;;;;;;;;12.91;58.49;100691.56;4354467;32;33467;-66
2023/01/03 08:18:44;;;;;;;;;;;;;;;12.97;58.47;100688.44;4354634;32;34726;-66
2023/01/03 08:21:12;;;;;;;;;;;;;;;12.75;59.38;100688.22;4350124;32;33896;-67
2023/01/03 08:23:39;;;;;;;;;;;;;;;12.96;58.56;100691.22;4346174;32;34753;-67
2023/01/03 08:26:07;;;;;;;;;;;;;;;12.69;59.48;100696.69;4351119;32;32253;-66
2023/01/03 08:28:34;;;;;;;;;;;;;;;12.95;58.65;100694.91;4356501;32;34195;-66
2023/01/03 08:31:02;;;;;;;;;;;;;;;12.51;60.13;100693.44;4347214;32;34075;-66
2023/01/03 08:33:32;;;;;;;;;;;;;;;12.54;60.05;100694.06;4335036;32;33996;-66
2023/01/03 08:36:00;;;;;;;;;;;;;;;12.53;60.31;100694.19;4353486;32;32504;-66
2023/01/03 08:38:28;;;;;;;;;;;;;;;12.21;61.82;100699.91;4359350;32;36284;-66
2023/01/03 08:40:56;;;;;;;;;;;;;;;12.64;60.52;100699.69;4358848;32;34382;-66
2023/01/03 08:43:23;;;;;;;;;;;;;;;12.81;59.93;100699.41;4353117;32;34248;-67
2023/01/03 08:45:50;;;;;;;;;;;;;;;12.83;60.06;100700.12;4353161;32;33527;-67
2023/01/03 08:48:18;;;;;;;;;;;;;;;12.33;61.75;100707.13;4359188;32;34997;-67
2023/01/03 08:50:45;;;;;;;;;;;;;;;12.26;62.64;100711.19;4332187;32;32842;-66
2023/01/03 08:53:13;;;;;;;;;;;;;;;12.62;61.67;100714.22;4352112;32;35416;-66
2023/01/03 08:55:40;;;;;;;;;;;;;;;12.65;61.29;100708.59;4357903;32;33646;-67
2023/01/03 08:58:10;;;;;;;;;;;;;;;12.59;61.27;100720.62;4358783;32;32634;-67
2023/01/03 09:00:38;;;;;;;;;;;;;;;12.91;60.58;100717.59;4355484;32;34345;-66
2023/01/03 09:03:05;;;;;;;;;;;;;;;12.94;60.15;100712.84;4353838;32;33980;-66
2023/01/03 09:05:33;;;;;;;;;;;;;;;12.92;60.45;100724.66;4354574;32;33598;-66
2023/01/03 09:08:01;;;;;;;;;;;;;;;12.91;60.91;100726.50;4356382;32;34094;-67
2023/01/03 09:10:28;;;;;;;;;;;;;;;12.89;60.66;100723.03;4358086;32;34218;-66
2023/01/03 09:15:22;;;;;;;;;;;;;;;13.09;60.36;100724.34;4490168;31;846013;-67
2023/01/03 09:17:50;;;;;;;;;;;;;;;12.94;61.25;100723.59;4487125;31;31264;-66
2023/01/03 09:20:17;;;;;;;;;;;;;;;13.31;60.12;100717.50;4494668;31;34862;-67
2023/01/03 09:22:46;;;;;;;;;;;;;;;13.42;59.66;100728.37;4498753;31;34391;-66
2023/01/03 09:25:14;;;;;;;;;;;;;;;13.56;59.02;100730.06;4504541;31;33422;-67
2023/01/03 09:27:45;;;;;;;;;;;;;;;13.45;59.99;100734.38;4504680;31;33615;-67
2023/01/03 09:30:14;;;;;;;;;;;;;;;13.17;60.49;100732.75;4507892;31;34057;-67
2023/01/03 09:32:41;;;;;;;;;;;;;;;13.68;59.22;100731.87;4483184;32;32926;-67
2023/01/03 09:35:09;;;;;;;;;;;;;;;13.57;59.10;100738.00;4503715;31;34336;-67
2023/01/03 09:37:37;;;;;;;;;;;;;;;13.88;58.12;100730.44;4504863;31;34312;-67
2023/01/03 09:40:09;;;;;;;;;;;;;;;13.94;58.11;100730.00;4484125;32;35637;-67
2023/01/03 09:45:27;;;;;;;;;;;;;;;14.10;57.77;100725.19;4478091;32;34001;-67
2023/01/03 09:47:54;;;;;;;;;;;;;;;13.86;58.18;100722.44;4477040;32;33691;-67
2023/01/03 09:50:22;;;;;;;;;;;;;;;14.27;57.19;100723.06;4486860;32;33916;-67
2023/01/03 10:04:57;;;;;;;;;;;;;;;15.18;53.39;100725.13;4485932;32;35910;-67
2023/01/03 10:07:27;;;;;;;;;;;;;;;15.29;53.71;100727.84;4482977;32;35033;-68
2023/01/03 10:10:13;;;;;;;;;;;;;;;15.73;52.43;100720.75;4487034;31;33551;-67
2023/01/03 10:12:44;;;;;;;;;;;;;;;15.97;51.59;100715.19;4482243;32;33012;-67
2023/01/03 10:15:34;;;;;;;;;;;;;;;16.35;50.77;100721.97;4467552;32;34568;-66
2023/01/03 10:18:01;;;;;;;;;;;;;;;15.18;52.93;100717.03;4491219;31;33797;-67
2023/01/03 10:20:34;;;;;;;;;;;;;;;15.18;52.84;100712.47;4490677;32;33593;-66
2023/01/03 10:23:03;;;;;;;;;;;;;;;15.35;52.49;100705.78;4489018;32;34319;-66
2023/01/03 10:25:30;;;;;;;;;;;;;;;15.30;52.77;100716.91;4470955;32;34025;-66
2023/01/03 10:28:01;;;;;;;;;;;;;;;14.04;56.66;100712.19;4459284;32;32835;-67
2023/01/03 10:30:29;;;;;;;;;;;;;;;14.27;55.94;100713.16;4462489;32;32259;-67
2023/01/03 10:33:02;;;;;;;;;;;;;;;14.83;54.27;100716.13;4469632;32;34562;-66
2023/01/03 10:35:30;;;;;;;;;;;;;;;14.93;54.31;100713.56;4473538;32;34331;-66
2023/01/03 10:37:58;;;;;;;;;;;;;;;14.39;55.86;100711.37;4471727;32;33478;-67
2023/01/03 10:40:34;;;;;;;;;;;;;;;14.47;55.69;100708.09;4469581;32;32868;-67
2023/01/03 10:43:09;;;;;;;;;;;;;;;14.80;54.22;100699.28;4473025;32;35002;-68
2023/01/03 10:45:48;;;;;;;;;;;;;;;14.11;55.61;100704.50;4473703;32;35418;-67
2023/01/03 10:48:16;;;;;;;;;;;;;;;13.85;56.13;100703.75;4460784;31;35051;-66
2023/01/03 10:50:43;;;;;;;;;;;;;;;14.27;55.73;100699.69;4474774;31;33503;-67
2023/01/03 10:53:10;;;;;;;;;;;;;;;14.33;55.41;100703.78;4473595;32;34320;-66
2023/01/03 10:55:51;;;;;;;;;;;;;;;14.82;54.11;100698.22;4460310;32;34296;-66
2023/01/03 10:58:25;;;;;;;;;;;;;;;14.75;54.55;100704.19;4465424;32;34091;-67
2023/01/03 11:01:10;;;;;;;;;;;;;;;14.21;55.62;100702.84;4473583;32;33184;-66
2023/01/03 11:03:43;;;;;;;;;;;;;;;14.47;54.75;100700.03;4458229;32;32741;-67
2023/01/03 11:06:17;;;;;;;;;;;;;;;14.30;55.22;100704.00;4479568;32;35486;-67
2023/01/03 11:08:45;;;;;;;;;;;;;;;14.11;55.78;100699.13;4466998;32;33085;-66
2023/01/03 11:11:32;;;;;;;;;;;;;;;15.00;53.49;100689.69;4471192;32;33605;-67
2023/01/03 11:14:29;;;;;;;;;;;;;;;14.21;55.49;100690.22;4466705;32;32802;-67
2023/01/03 11:16:58;;;;;;;;;;;;;;;14.19;55.47;100688.66;4460620;32;34531;-67
2023/01/03 11:19:27;;;;;;;;;;;;;;;14.93;53.64;100688.41;4478120;32;35128;-67
2023/01/03 11:22:14;;;;;;;;;;;;;;;14.85;53.90;100687.19;4456542;32;31988;-67
2023/01/03 11:24:42;;;;;;;;;;;;;;;14.84;53.95;100688.19;4475512;32;33485;-67
2023/01/03 11:27:19;;;;;;;;;;;;;;;15.53;52.43;100688.09;4478043;32;35226;-66
2023/01/03 11:30:07;;;;;;;;;;;;;;;15.56;51.86;100685.16;4465444;32;35069;-67
2023/01/03 11:32:45;;;;;;;;;;;;;;;14.73;53.65;100695.38;4470356;32;33096;-66
2023/01/03 11:35:34;;;;;;;;;;;;;;;14.95;52.89;100690.03;4452955;32;35073;-67
2023/01/03 11:38:02;;;;;;;;;;;;;;;14.91;52.64;100693.94;4458310;32;35364;-67
2023/01/03 11:40:48;;;;;;;;;;;;;;;14.59;53.91;100691.91;4476169;32;34932;-67
2023/01/03 11:43:15;;;;;;;;;;;;;;;14.75;53.73;100683.50;4467964;31;33572;-66
2023/01/03 11:45:48;;;;;;;;;;;;;;;14.96;53.16;100680.09;4472584;32;34218;-67
2023/01/03 11:48:22;;;;;;;;;;;;;;;15.08;52.38;100676.44;4466888;32;35887;-68
2023/01/03 11:50:52;;;;;;;;;;;;;;;15.05;52.50;100680.22;4467720;32;34464;-68
2023/01/03 11:53:23;;;;;;;;;;;;;;;14.85;53.54;100681.78;4450052;32;33288;-68
2023/01/03 11:55:59;;;;;;;;;;;;;;;14.95;53.55;100684.63;4466863;31;34326;-67
2023/01/03 11:58:26;;;;;;;;;;;;;;;14.91;53.42;100680.47;4468039;32;33120;-69
2023/01/03 12:00:59;;;;;;;;;;;;;;;14.98;53.05;100683.53;4473199;32;33734;-67
2023/01/03 12:03:50;;;;;;;;;;;;;;;14.10;55.30;100676.72;4470785;31;32848;-67
2023/01/03 12:06:24;;;;;;;;;;;;;;;14.21;55.23;100675.91;4462533;32;34303;-67
2023/01/03 12:08:55;;;;;;;;;;;;;;;14.37;54.17;100672.94;4472804;32;35108;-67
2023/01/03 12:11:28;;;;;;;;;;;;;;;14.61;54.05;100675.62;4466517;32;32111;-67
2023/01/03 12:13:58;;;;;;;;;;;;;;;13.63;56.36;100675.72;4462668;32;32747;-67
2023/01/03 12:16:33;;;;;;;;;;;;;;;13.50;56.74;100669.50;4471612;32;34267;-69
2023/01/03 12:19:02;;;;;;;;;;;;;;;13.73;56.51;100667.81;4457722;32;33029;-67
2023/01/03 12:21:39;;;;;;;;;;;;;;;13.54;57.32;100668.31;4473514;32;34142;-67
2023/01/03 12:24:18;;;;;;;;;;;;;;;13.52;57.11;100665.72;4455792;32;33443;-67
2023/01/03 12:26:47;;;;;;;;;;;;;;;14.13;55.27;100657.66;4463261;32;35127;-67
2023/01/03 12:29:36;;;;;;;;;;;;;;;14.21;54.80;100663.31;4462783;32;35033;-67
2023/01/03 12:32:07;;;;;;;;;;;;;;;13.82;55.64;100655.53;4458758;32;33394;-67
2023/01/03 12:34:59;;;;;;;;;;;;;;;13.85;55.78;100650.78;4460626;32;34314;-68
2023/01/03 12:37:28;;;;;;;;;;;;;;;13.56;56.25;100661.00;4465971;32;35331;-67
2023/01/03 12:40:00;;;;;;;;;;;;;;;13.75;55.89;100660.50;4470339;32;34411;-67
2023/01/03 12:42:37;;;;;;;;;;;;;;;13.74;56.12;100665.03;4468876;32;33969;-68
2023/01/03 12:45:13;;;;;;;;;;;;;;;14.13;55.02;100657.66;4445731;32;31834;-67
2023/01/03 12:47:41;;;;;;;;;;;;;;;13.82;55.77;100655.53;4459122;32;33926;-68
2023/01/03 12:50:10;;;;;;;;;;;;;;;13.48;56.60;100656.19;4448729;32;31875;-67
2023/01/03 12:52:37;;;;;;;;;;;;;;;13.77;55.97;100660.37;4471861;32;32326;-67
2023/01/03 12:55:07;;;;;;;;;;;;;;;13.40;56.88;100653.16;4474129;32;30988;-67
2023/01/03 12:57:44;;;;;;;;;;;;;;;13.19;57.67;100658.25;4470686;32;34796;-67
2023/01/03 13:00:18;;;;;;;;;;;;;;;13.11;58.14;100657.06;4457535;32;34367;-68
2023/01/03 13:02:49;;;;;;;;;;;;;;;13.82;55.92;100653.69;4471107;32;32772;-66
2023/01/03 13:05:18;;;;;;;;;;;;;;;13.19;57.52;100655.56;4475196;32;32723;-66
2023/01/03 13:07:51;;;;;;;;;;;;;;;12.88;58.59;100658.69;4463148;32;35564;-68
2023/01/03 13:10:19;;;;;;;;;;;;;;;13.28;57.21;100662.12;4460652;32;33748;-67
2023/01/03 13:12:48;;;;;;;;;;;;;;;12.99;58.26;100661.47;4459677;32;34169;-67
2023/01/03 13:15:26;;;;;;;;;;;;;;;13.33;57.32;100662.66;4473747;32;33538;-68
2023/01/03 13:18:28;;;;;;;;;;;;;;;13.15;57.17;100667.47;4478392;32;33779;-67
2023/01/03 13:20:56;;;;;;;;;;;;;;;13.42;56.66;100664.69;4466460;32;34568;-67
2023/01/03 13:23:31;;;;;;;;;;;;;;;13.72;55.71;100663.41;4456971;32;34036;-66
2023/01/03 13:26:04;;;;;;;;;;;;;;;13.36;56.36;100656.22;4472586;32;33442;-67
2023/01/03 13:28:32;;;;;;;;;;;;;;;13.83;55.33;100659.94;4472595;32;33972;-67
2023/01/03 13:31:13;;;;;;;;;;;;;;;13.31;56.40;100652.97;4478699;32;33931;-68
2023/01/03 13:33:41;;;;;;;;;;;;;;;12.89;57.89;100660.37;4469513;32;34561;-66
2023/01/03 13:36:09;;;;;;;;;;;;;;;13.54;55.79;100667.44;4469294;31;31606;-67
2023/01/03 13:38:37;;;;;;;;;;;;;;;13.24;56.50;100665.97;4460827;32;34497;-68
2023/01/03 13:41:08;;;;;;;;;;;;;;;13.78;54.94;100664.81;4468714;31;34883;-67
2023/01/03 13:43:47;;;;;;;;;;;;;;;13.45;55.93;100668.97;4461983;32;34216;-66
2023/01/03 13:46:21;;;;;;;;;;;;;;;13.30;55.63;100654.81;4477225;32;33182;-68
2023/01/03 13:48:55;;;;;;;;;;;;;;;13.41;55.25;100662.09;4468459;32;34600;-68
2023/01/03 13:51:25;;;;;;;;;;;;;;;13.21;55.98;100671.56;4477837;32;35201;-68